Terminal Aerodrome Forecast
Issued by NWS Columbia, SC

Home | Current Version | Previous Version | Text Only | Print | Product List | Glossary On
Versions: 1 2 3 4 5 6 7 8 9 10 11 12 13 14 15 16 17 18 19 20 21 22 23 24 25 26 27 28 29 30 31 32 33 34 35 36 37 38 39 40 41 42 43 44 45
593
FTAK31 PAJN 111758
TAFAGS
TAF
PAGS 111758Z 1118/1218 13011KT P6SM VCSH SCT060 OVC080
      WS020/14025KT
     FM112200 33004KT P6SM VCSH SCT060 OVC080 WS020/14025KT
     FM112300 33005KT P6SM VCSH OVC080
     FM120600 VRB03KT 6SM BCFG SCT004 BKN080
     FM121300 33004KT P6SM SCT060 OVC080
     FM121500 34003KT P6SM -RA SCT020 OVC035
      AMD LTD TO CLD VIS AND WIND=

USA.gov is the U.S. government's official web portal to all federal, state and local government web resources and services.